Time;durP1;ratioP1;P1;durP2;ratioP2;P2;SDS_P1;SDS_P2;PMS_P1;PMS_P2;Temp;Humidity;BMP_temperature;BMP_pressure;BME280_temperature;BME280_humidity;BME280_pressure;Samples;Min_cycle;Max_cycle;Signal;HPM_P1;HPM_P2
2022/11/12 00:03:22;;;;;;;5.45;3.80;;;;;;;;;;10386066;28;20436;-54
2022/11/12 00:08:22;;;;;;;8.57;4.40;;;;;;;;;;10394431;28;20022;-64
2022/11/12 00:13:22;;;;;;;5.03;3.78;;;;;;;;;;10385418;28;20117;-50
2022/11/12 00:18:23;;;;;;;8.75;4.57;;;;;;;;;;10390579;28;20041;-54
2022/11/12 00:23:23;;;;;;;6.63;4.20;;;;;;;;;;10386186;28;20026;-59
2022/11/12 00:28:23;;;;;;;5.53;3.95;;;;;;;;;;10379629;28;20122;-63
2022/11/12 00:33:24;;;;;;;5.82;4.15;;;;;;;;;;10365426;28;20021;-65
2022/11/12 00:38:24;;;;;;;7.65;4.38;;;;;;;;;;10394670;28;20412;-59
2022/11/12 00:43:24;;;;;;;5.43;4.25;;;;;;;;;;10392216;28;20053;-62
2022/11/12 00:48:24;;;;;;;6.45;3.75;;;;;;;;;;10378848;28;20028;-50
2022/11/12 00:53:25;;;;;;;10.15;3.88;;;;;;;;;;10385653;28;20053;-50
2022/11/12 00:58:27;;;;;;;5.97;4.00;;;;;;;;;;10388016;28;20022;-50
2022/11/12 01:03:27;;;;;;;7.95;3.85;;;;;;;;;;10392960;28;20061;-48
2022/11/12 01:08:28;;;;;;;7.35;3.60;;;;;;;;;;10398528;28;20108;-50
2022/11/12 01:13:28;;;;;;;6.40;4.03;;;;;;;;;;10399468;28;20029;-49
2022/11/12 01:18:28;;;;;;;5.50;3.80;;;;;;;;;;10402109;28;20035;-48
2022/11/12 01:23:31;;;;;;;5.35;3.72;;;;;;;;;;10397745;28;20025;-48
2022/11/12 01:28:31;;;;;;;5.10;3.60;;;;;;;;;;10406356;28;20072;-47
2022/11/12 01:33:32;;;;;;;9.13;3.38;;;;;;;;;;10397480;28;20113;-48
2022/11/12 01:38:33;;;;;;;5.28;3.88;;;;;;;;;;10405007;28;20074;-57
2022/11/12 01:43:33;;;;;;;6.75;3.90;;;;;;;;;;10373757;28;20112;-49
2022/11/12 01:48:37;;;;;;;5.72;3.97;;;;;;;;;;10405013;28;20079;-47
2022/11/12 01:53:39;;;;;;;8.05;4.20;;;;;;;;;;10374134;28;20041;-49
2022/11/12 01:58:40;;;;;;;5.25;4.15;;;;;;;;;;10372355;28;20103;-49
2022/11/12 02:03:40;;;;;;;4.57;3.50;;;;;;;;;;10372873;28;20461;-48
2022/11/12 02:08:40;;;;;;;6.20;4.20;;;;;;;;;;10372313;28;20390;-48
2022/11/12 02:13:56;;;;;;;6.03;3.13;;;;;;;;;;10370905;28;20478;-49
2022/11/12 02:18:57;;;;;;;5.72;3.78;;;;;;;;;;10373424;28;20108;-49
2022/11/12 02:24:02;;;;;;;5.25;3.92;;;;;;;;;;10371313;28;20061;-48
2022/11/12 02:29:02;;;;;;;5.68;3.42;;;;;;;;;;10371045;28;20030;-49
2022/11/12 02:34:02;;;;;;;7.80;3.80;;;;;;;;;;10371672;28;20034;-47
2022/11/12 02:39:03;;;;;;;6.43;4.05;;;;;;;;;;10370806;28;20057;-48
2022/11/12 02:44:03;;;;;;;3.80;3.27;;;;;;;;;;10370171;28;20064;-48
2022/11/12 02:49:03;;;;;;;4.80;3.57;;;;;;;;;;10371219;28;20036;-49
2022/11/12 02:54:03;;;;;;;5.05;3.58;;;;;;;;;;10369602;28;20080;-48
2022/11/12 02:59:04;;;;;;;4.77;3.70;;;;;;;;;;10369974;28;20030;-49
2022/11/12 03:04:04;;;;;;;4.30;3.55;;;;;;;;;;10369247;28;20030;-48
2022/11/12 03:09:04;;;;;;;5.20;3.50;;;;;;;;;;10369655;28;20084;-48
2022/11/12 03:14:04;;;;;;;4.13;3.20;;;;;;;;;;10369352;28;20022;-48
2022/11/12 03:19:05;;;;;;;6.80;3.72;;;;;;;;;;10368667;28;20118;-51
2022/11/12 03:24:05;;;;;;;4.83;3.60;;;;;;;;;;10369167;28;20046;-48
2022/11/12 03:29:05;;;;;;;4.53;3.70;;;;;;;;;;10360974;28;20870;-64
2022/11/12 03:34:06;;;;;;;4.80;3.75;;;;;;;;;;10350650;28;20490;-64
2022/11/12 03:39:06;;;;;;;4.63;3.87;;;;;;;;;;10368755;28;20125;-65
2022/11/12 03:44:06;;;;;;;4.50;3.53;;;;;;;;;;10368468;28;20038;-62
2022/11/12 03:49:06;;;;;;;3.47;3.13;;;;;;;;;;10368963;28;20431;-65
2022/11/12 03:54:07;;;;;;;5.30;3.95;;;;;;;;;;10368667;28;20026;-66
2022/11/12 03:59:09;;;;;;;4.88;3.58;;;;;;;;;;10367182;28;20417;-63
2022/11/12 04:04:09;;;;;;;5.22;3.83;;;;;;;;;;10366973;28;20038;-66
2022/11/12 04:09:09;;;;;;;4.63;3.53;;;;;;;;;;10349832;28;20520;-64
2022/11/12 04:14:09;;;;;;;6.28;3.88;;;;;;;;;;10367686;28;20029;-64
2022/11/12 04:35:08;;;;;;;4.20;3.70;;;;;;;;;;10367293;28;20034;-62
2022/11/12 04:45:33;;;;;;;4.80;3.20;;;;;;;;;;10366131;28;20030;-61
2022/11/12 04:50:33;;;;;;;4.18;3.25;;;;;;;;;;10366907;28;20025;-64
2022/11/12 04:55:33;;;;;;;3.22;2.92;;;;;;;;;;10366634;28;20068;-61
2022/11/12 05:00:34;;;;;;;4.30;3.00;;;;;;;;;;10366327;28;20030;-63
2022/11/12 05:05:34;;;;;;;3.43;2.97;;;;;;;;;;10366204;28;20164;-65
2022/11/12 05:10:34;;;;;;;4.43;3.50;;;;;;;;;;10365703;28;20232;-65
2022/11/12 05:15:35;;;;;;;5.18;3.30;;;;;;;;;;10365342;28;20547;-64
2022/11/12 05:20:35;;;;;;;5.15;3.65;;;;;;;;;;10365640;28;20037;-62
2022/11/12 05:25:35;;;;;;;3.33;3.00;;;;;;;;;;10366012;28;20058;-61
2022/11/12 05:30:36;;;;;;;3.17;2.88;;;;;;;;;;10365585;28;20033;-61
2022/11/12 05:35:36;;;;;;;3.60;2.90;;;;;;;;;;10366615;28;20490;-61
2022/11/12 05:40:36;;;;;;;3.70;3.22;;;;;;;;;;10364763;28;20401;-62
2022/11/12 05:45:36;;;;;;;3.83;2.65;;;;;;;;;;10365350;28;20428;-63
2022/11/12 05:50:37;;;;;;;3.10;2.60;;;;;;;;;;10365066;28;20026;-62
2022/11/12 05:55:37;;;;;;;4.53;2.90;;;;;;;;;;10368599;28;20030;-64
2022/11/12 06:00:40;;;;;;;3.80;3.17;;;;;;;;;;10370787;28;20068;-63
2022/11/12 06:05:40;;;;;;;3.72;3.08;;;;;;;;;;10372155;28;20112;-62
2022/11/12 06:10:41;;;;;;;3.75;3.17;;;;;;;;;;10371000;28;20021;-60
2022/11/12 06:15:41;;;;;;;6.22;2.97;;;;;;;;;;10371887;28;20498;-63
2022/11/12 06:20:41;;;;;;;3.55;3.15;;;;;;;;;;10371692;28;20049;-64
2022/11/12 06:25:41;;;;;;;4.00;3.28;;;;;;;;;;10353956;28;20038;-64
2022/11/12 06:30:42;;;;;;;3.38;2.88;;;;;;;;;;10370889;28;20037;-56
2022/11/12 06:35:42;;;;;;;3.50;3.00;;;;;;;;;;10371027;28;20033;-59
2022/11/12 06:40:43;;;;;;;3.97;3.35;;;;;;;;;;10369995;28;20891;-62
2022/11/12 06:45:43;;;;;;;14.63;3.42;;;;;;;;;;10370570;28;20537;-68
2022/11/12 06:50:43;;;;;;;12.13;3.50;;;;;;;;;;10368834;28;20030;-64
2022/11/12 06:55:43;;;;;;;11.97;3.70;;;;;;;;;;10370833;28;20091;-64
2022/11/12 07:00:44;;;;;;;6.68;3.92;;;;;;;;;;10365977;28;20165;-64
2022/11/12 07:05:44;;;;;;;9.38;4.13;;;;;;;;;;10352056;28;20022;-64
2022/11/12 07:10:44;;;;;;;17.95;4.43;;;;;;;;;;10368436;28;20045;-64
2022/11/12 07:15:44;;;;;;;16.65;3.90;;;;;;;;;;10369583;28;20026;-63
2022/11/12 07:20:45;;;;;;;5.57;3.78;;;;;;;;;;10368298;28;20524;-60
2022/11/12 07:25:45;;;;;;;10.63;4.03;;;;;;;;;;10364155;28;20041;-61
2022/11/12 07:30:45;;;;;;;5.15;3.63;;;;;;;;;;10365264;28;20424;-61
2022/11/12 07:35:45;;;;;;;9.07;4.32;;;;;;;;;;10368268;28;20030;-62
2022/11/12 07:40:46;;;;;;;6.55;3.85;;;;;;;;;;10368016;28;20103;-61
2022/11/12 07:45:46;;;;;;;6.85;3.63;;;;;;;;;;10367144;28;20033;-63
2022/11/12 07:50:46;;;;;;;8.13;3.60;;;;;;;;;;10366223;28;20026;-61
2022/11/12 07:55:54;;;;;;;11.80;3.70;;;;;;;;;;10369180;28;20470;-58
2022/11/12 08:00:54;;;;;;;7.28;3.92;;;;;;;;;;10365800;28;20139;-62
2022/11/12 08:05:55;;;;;;;10.85;3.80;;;;;;;;;;10366754;28;20052;-61
2022/11/12 08:10:55;;;;;;;6.03;3.67;;;;;;;;;;10364843;28;20026;-60
2022/11/12 08:15:56;;;;;;;7.63;4.07;;;;;;;;;;10369042;28;20033;-62
2022/11/12 08:21:00;;;;;;;5.28;3.45;;;;;;;;;;10368067;28;20469;-62
2022/11/12 08:26:01;;;;;;;12.63;4.35;;;;;;;;;;10368174;28;20493;-65
2022/11/12 08:31:06;;;;;;;10.70;3.55;;;;;;;;;;10388671;28;20041;-64
2022/11/12 08:36:07;;;;;;;8.13;3.70;;;;;;;;;;10368958;28;20195;-64
2022/11/12 08:41:09;;;;;;;7.53;4.25;;;;;;;;;;10368526;28;20049;-61
2022/11/12 08:46:09;;;;;;;8.52;4.35;;;;;;;;;;10377858;28;20500;-60
2022/11/12 08:51:10;;;;;;;8.63;4.22;;;;;;;;;;10386134;28;20108;-64
2022/11/12 08:56:10;;;;;;;11.05;4.07;;;;;;;;;;10366477;28;20045;-63
2022/11/12 09:01:10;;;;;;;8.38;4.15;;;;;;;;;;10370862;28;20053;-61
2022/11/12 09:06:10;;;;;;;5.75;4.05;;;;;;;;;;10358673;28;20489;-64
2022/11/12 09:11:11;;;;;;;7.22;4.30;;;;;;;;;;10364013;28;20037;-64
2022/11/12 09:16:11;;;;;;;6.82;4.00;;;;;;;;;;10365438;28;20034;-65
2022/11/12 09:21:11;;;;;;;7.40;3.50;;;;;;;;;;10337820;28;20041;-63
2022/11/12 09:26:12;;;;;;;9.40;3.60;;;;;;;;;;10358293;28;20514;-64
2022/11/12 09:31:12;;;;;;;13.45;3.97;;;;;;;;;;10367727;28;20489;-66
2022/11/12 09:36:12;;;;;;;14.00;4.57;;;;;;;;;;10370815;28;20408;-66
2022/11/12 09:41:22;;;;;;;14.97;4.33;;;;;;;;;;10369727;28;20417;-66
2022/11/12 09:46:26;;;;;;;29.88;5.20;;;;;;;;;;10370540;28;20485;-65
2022/11/12 09:51:29;;;;;;;25.63;4.53;;;;;;;;;;10350588;28;20112;-58
2022/11/12 09:56:29;;;;;;;28.73;4.28;;;;;;;;;;10367752;28;20038;-63
2022/11/12 10:01:39;;;;;;;16.13;4.20;;;;;;;;;;10341246;28;20026;-60
2022/11/12 10:06:54;;;;;;;14.15;5.03;;;;;;;;;;10366123;28;20033;-61
2022/11/12 10:17:27;;;;;;;12.90;4.25;;;;;;;;;;10364506;28;20037;-67
2022/11/12 10:22:43;;;;;;;13.98;4.68;;;;;;;;;;10363416;28;20340;-62
2022/11/12 10:27:44;;;;;;;14.02;4.20;;;;;;;;;;10358350;28;20053;-61
2022/11/12 10:32:45;;;;;;;11.77;4.75;;;;;;;;;;10381124;28;20030;-60
2022/11/12 10:37:55;;;;;;;16.08;4.05;;;;;;;;;;10376013;28;20057;-63
2022/11/12 10:42:57;;;;;;;11.63;4.22;;;;;;;;;;10381020;28;20057;-62
2022/11/12 10:47:58;;;;;;;16.13;4.43;;;;;;;;;;10390268;28;20034;-64
2022/11/12 10:52:58;;;;;;;13.52;4.13;;;;;;;;;;10391462;28;20489;-60
2022/11/12 10:58:06;;;;;;;9.27;3.63;;;;;;;;;;10393761;28;20029;-59
2022/11/12 11:03:27;;;;;;;11.93;4.05;;;;;;;;;;10397382;28;20037;-64
2022/11/12 11:08:31;;;;;;;17.10;4.53;;;;;;;;;;10360383;28;20045;-59
2022/11/12 11:13:31;;;;;;;13.25;4.25;;;;;;;;;;10365248;28;20124;-62
2022/11/12 11:18:33;;;;;;;6.00;3.72;;;;;;;;;;10368947;28;20048;-64
2022/11/12 11:23:47;;;;;;;9.55;3.63;;;;;;;;;;10366127;28;20589;-64
2022/11/12 11:29:04;;;;;;;9.10;4.45;;;;;;;;;;10376768;28;20079;-63
2022/11/12 11:34:07;;;;;;;5.70;3.53;;;;;;;;;;10389545;28;20034;-56
2022/11/12 11:39:26;;;;;;;10.75;3.65;;;;;;;;;;10380046;28;20042;-65
2022/11/12 11:44:26;;;;;;;11.27;3.47;;;;;;;;;;10388571;28;20041;-64
2022/11/12 11:49:32;;;;;;;11.80;3.90;;;;;;;;;;10388242;28;20087;-64
2022/11/12 11:54:48;;;;;;;7.93;3.42;;;;;;;;;;10396169;28;20036;-64
2022/11/12 12:00:01;;;;;;;8.90;3.42;;;;;;;;;;10379624;28;20533;-64
2022/11/12 12:05:20;;;;;;;7.10;3.03;;;;;;;;;;10379918;28;20032;-64
2022/11/12 12:10:24;;;;;;;6.35;3.13;;;;;;;;;;10401001;28;20025;-65
2022/11/12 12:15:33;;;;;;;6.57;3.65;;;;;;;;;;10396843;28;20038;-64
2022/11/12 12:20:54;;;;;;;8.55;3.30;;;;;;;;;;10376376;28;20022;-65
2022/11/12 12:25:56;;;;;;;5.88;3.50;;;;;;;;;;10345704;28;20065;-65
2022/11/12 12:31:00;;;;;;;7.60;3.70;;;;;;;;;;10365254;28;20497;-61
2022/11/12 12:36:01;;;;;;;6.88;3.28;;;;;;;;;;10363352;28;20298;-60
2022/11/12 12:41:15;;;;;;;5.53;3.40;;;;;;;;;;10363126;28;20054;-63
2022/11/12 12:46:18;;;;;;;5.78;3.25;;;;;;;;;;10360394;28;20547;-64
2022/11/12 12:51:19;;;;;;;9.13;3.53;;;;;;;;;;10365116;28;20037;-62
2022/11/12 12:56:22;;;;;;;6.05;3.28;;;;;;;;;;10365494;28;20025;-60
2022/11/12 13:01:22;;;;;;;5.88;3.22;;;;;;;;;;10359696;28;20034;-59
2022/11/12 13:06:26;;;;;;;7.78;3.50;;;;;;;;;;10369521;28;20037;-64
2022/11/12 13:17:14;;;;;;;8.68;2.97;;;;;;;;;;10369362;28;20128;-62
2022/11/12 13:22:17;;;;;;;4.93;3.13;;;;;;;;;;10370917;28;20261;-65
2022/11/12 13:27:37;;;;;;;7.88;3.60;;;;;;;;;;10373785;28;20478;-62
2022/11/12 13:32:40;;;;;;;6.50;3.42;;;;;;;;;;10373068;28;20081;-60
2022/11/12 13:37:47;;;;;;;5.72;3.25;;;;;;;;;;10372397;28;20096;-61
2022/11/12 13:42:47;;;;;;;5.65;3.50;;;;;;;;;;10368101;28;20026;-65
2022/11/12 13:47:48;;;;;;;7.90;3.38;;;;;;;;;;10368740;28;20112;-60
2022/11/12 13:52:48;;;;;;;7.40;3.83;;;;;;;;;;10370873;28;20087;-64
2022/11/12 13:57:50;;;;;;;5.72;3.17;;;;;;;;;;10374271;28;20034;-64
2022/11/12 14:02:55;;;;;;;6.72;3.50;;;;;;;;;;10364291;28;20077;-65
2022/11/12 14:08:07;;;;;;;6.60;3.40;;;;;;;;;;10383017;28;20033;-64
2022/11/12 14:13:26;;;;;;;13.65;3.90;;;;;;;;;;10371059;28;20054;-61
2022/11/12 14:18:26;;;;;;;;;;;;;;;;;;10387495;28;20030;-66
2022/11/12 14:23:27;;;;;;;5.68;3.53;;;;;;;;;;10371740;28;20273;-64
2022/11/12 14:28:32;;;;;;;4.70;3.10;;;;;;;;;;10370582;28;20037;-65
2022/11/12 14:33:32;;;;;;;4.82;2.92;;;;;;;;;;10347511;28;20425;-61
2022/11/12 14:38:36;;;;;;;7.53;3.20;;;;;;;;;;10364921;28;20065;-63
2022/11/12 14:43:40;;;;;;;9.75;3.08;;;;;;;;;;10369312;28;20452;-62
2022/11/12 14:48:46;;;;;;;7.05;2.90;;;;;;;;;;10365530;28;20470;-54
2022/11/12 14:53:58;;;;;;;10.95;3.65;;;;;;;;;;10373645;28;20083;-66
2022/11/12 14:58:59;;;;;;;6.07;2.80;;;;;;;;;;10379201;28;20022;-66
2022/11/12 15:04:19;;;;;;;7.20;3.07;;;;;;;;;;10384669;28;20140;-52
2022/11/12 15:09:30;;;;;;;6.85;3.25;;;;;;;;;;10376827;28;20033;-63
2022/11/12 15:14:31;;;;;;;12.30;3.42;;;;;;;;;;10384232;28;21222;-63
2022/11/12 15:19:32;;;;;;;5.60;3.00;;;;;;;;;;10344360;28;20022;-67
2022/11/12 15:24:37;;;;;;;12.27;2.97;;;;;;;;;;10336344;28;20069;-55
2022/11/12 15:29:38;;;;;;;6.10;3.35;;;;;;;;;;10363846;28;20030;-64
2022/11/12 15:34:38;;;;;;;7.77;3.40;;;;;;;;;;10358364;28;20474;-59
2022/11/12 15:39:41;;;;;;;7.13;3.25;;;;;;;;;;10362017;28;20483;-58
2022/11/12 15:44:41;;;;;;;11.50;3.78;;;;;;;;;;10366928;28;20034;-50
2022/11/12 15:49:46;;;;;;;9.77;3.22;;;;;;;;;;10368287;28;20065;-67
2022/11/12 15:54:46;;;;;;;8.80;3.40;;;;;;;;;;10360901;28;20382;-58
2022/11/12 16:00:07;;;;;;;5.85;3.20;;;;;;;;;;10352036;28;20029;-57
2022/11/12 16:05:11;;;;;;;5.22;3.30;;;;;;;;;;10360661;28;20041;-52
2022/11/12 16:10:12;;;;;;;8.35;3.88;;;;;;;;;;10367204;28;20065;-60
2022/11/12 16:15:14;;;;;;;6.05;3.47;;;;;;;;;;10368987;28;20133;-62
2022/11/12 16:20:34;;;;;;;7.55;3.33;;;;;;;;;;10365220;28;20479;-53
2022/11/12 16:25:35;;;;;;;9.63;3.58;;;;;;;;;;10364447;28;20041;-50
2022/11/12 16:30:40;;;;;;;8.82;3.63;;;;;;;;;;10360737;28;20478;-55
2022/11/12 16:35:41;;;;;;;4.65;3.58;;;;;;;;;;10348525;28;20038;-65
2022/11/12 16:40:42;;;;;;;9.17;3.80;;;;;;;;;;10366832;28;20498;-63
2022/11/12 16:45:43;;;;;;;8.60;3.78;;;;;;;;;;10361933;28;20049;-61
2022/11/12 16:50:43;;;;;;;6.35;4.18;;;;;;;;;;10364763;28;20099;-59
2022/11/12 16:55:44;;;;;;;6.05;3.70;;;;;;;;;;10361249;28;20034;-62
2022/11/12 17:00:45;;;;;;;8.63;4.43;;;;;;;;;;10366587;28;20033;-63
2022/11/12 17:05:49;;;;;;;10.93;4.22;;;;;;;;;;10367219;28;20029;-62
2022/11/12 17:10:49;;;;;;;16.10;4.15;;;;;;;;;;10367258;28;20014;-64
2022/11/12 17:15:54;;;;;;;7.53;4.10;;;;;;;;;;10365815;28;20037;-63
2022/11/12 17:20:55;;;;;;;10.40;4.22;;;;;;;;;;10366215;28;20085;-66
2022/11/12 17:26:02;;;;;;;8.23;4.60;;;;;;;;;;10363948;28;20038;-64
2022/11/12 17:31:08;;;;;;;9.25;4.85;;;;;;;;;;10364392;28;20041;-64
2022/11/12 17:36:10;;;;;;;8.80;4.75;;;;;;;;;;10365289;28;20034;-67
2022/11/12 17:41:10;;;;;;;6.88;4.78;;;;;;;;;;10362597;28;20045;-66
2022/11/12 17:46:12;;;;;;;10.98;4.78;;;;;;;;;;10369045;28;20030;-67
2022/11/12 17:51:13;;;;;;;6.75;4.18;;;;;;;;;;10368236;28;20532;-66
2022/11/12 17:56:15;;;;;;;7.95;4.80;;;;;;;;;;10398729;28;20029;-64
2022/11/12 18:01:16;;;;;;;9.65;4.65;;;;;;;;;;10372519;28;20037;-66
2022/11/12 18:06:17;;;;;;;10.93;4.75;;;;;;;;;;10374172;28;20037;-67
2022/11/12 18:11:17;;;;;;;8.88;4.82;;;;;;;;;;10360109;28;20033;-68
2022/11/12 18:16:26;;;;;;;9.60;5.20;;;;;;;;;;10369251;28;20022;-66
2022/11/12 18:21:26;;;;;;;8.32;4.97;;;;;;;;;;10362356;28;21118;-60
2022/11/12 18:26:27;;;;;;;9.53;5.33;;;;;;;;;;10364095;28;20308;-66
2022/11/12 18:31:27;;;;;;;6.13;4.93;;;;;;;;;;10361056;28;20467;-67
2022/11/12 18:36:28;;;;;;;7.82;5.15;;;;;;;;;;10355326;28;20042;-69
2022/11/12 18:41:29;;;;;;;8.40;5.22;;;;;;;;;;10369368;28;20060;-67
2022/11/12 18:46:29;;;;;;;6.22;5.05;;;;;;;;;;10368045;28;20030;-67
2022/11/12 18:51:29;;;;;;;20.80;5.95;;;;;;;;;;10366452;28;20026;-70
2022/11/12 18:56:30;;;;;;;17.10;6.23;;;;;;;;;;10368018;28;20130;-62
2022/11/12 19:01:30;;;;;;;11.82;6.03;;;;;;;;;;10359330;28;21002;-64
2022/11/12 19:06:30;;;;;;;12.60;5.70;;;;;;;;;;10350263;28;20030;-64
2022/11/12 19:11:31;;;;;;;12.77;6.27;;;;;;;;;;10367594;28;20021;-61
2022/11/12 19:16:31;;;;;;;18.77;6.90;;;;;;;;;;10358887;28;20084;-63
2022/11/12 19:21:31;;;;;;;22.00;6.30;;;;;;;;;;10367401;28;20112;-62
2022/11/12 19:26:32;;;;;;;15.60;6.03;;;;;;;;;;10340454;28;20117;-60
2022/11/12 19:31:33;;;;;;;12.47;6.10;;;;;;;;;;10360847;28;20033;-63
2022/11/12 19:36:33;;;;;;;21.10;6.00;;;;;;;;;;10367560;28;20038;-63
2022/11/12 19:41:33;;;;;;;9.83;5.73;;;;;;;;;;10366269;28;20041;-64
2022/11/12 19:46:34;;;;;;;14.60;5.85;;;;;;;;;;10374021;28;20040;-64
2022/11/12 19:51:35;;;;;;;13.05;6.20;;;;;;;;;;10355955;28;20472;-64
2022/11/12 19:56:35;;;;;;;13.02;5.60;;;;;;;;;;10364614;28;20099;-64
2022/11/12 20:01:35;;;;;;;14.57;6.15;;;;;;;;;;10350713;28;20026;-62
2022/11/12 20:06:36;;;;;;;13.35;6.25;;;;;;;;;;10363747;28;20025;-60
2022/11/12 20:11:36;;;;;;;16.87;6.03;;;;;;;;;;10362775;28;20481;-63
2022/11/12 20:16:37;;;;;;;12.03;6.43;;;;;;;;;;10355570;28;20455;-63
2022/11/12 20:21:38;;;;;;;11.13;6.57;;;;;;;;;;10344694;28;20038;-59
2022/11/12 20:26:38;;;;;;;10.27;6.13;;;;;;;;;;10346901;28;20100;-63
2022/11/12 20:31:40;;;;;;;12.13;6.18;;;;;;;;;;10362384;28;20486;-59
2022/11/12 20:36:40;;;;;;;11.20;6.78;;;;;;;;;;10360289;28;20612;-59
2022/11/12 20:41:41;;;;;;;9.50;6.47;;;;;;;;;;10350634;28;20043;-59
2022/11/12 20:46:41;;;;;;;9.00;6.45;;;;;;;;;;10359350;28;20026;-62
2022/11/12 20:51:41;;;;;;;10.20;6.20;;;;;;;;;;10360729;28;20032;-60
2022/11/12 20:56:43;;;;;;;12.15;6.93;;;;;;;;;;10342164;28;20033;-62
2022/11/12 21:01:43;;;;;;;12.45;6.10;;;;;;;;;;10351672;28;20425;-59
2022/11/12 21:06:43;;;;;;;12.32;7.20;;;;;;;;;;10364463;28;20140;-55
2022/11/12 21:11:43;;;;;;;11.30;6.35;;;;;;;;;;10364327;28;20579;-62
2022/11/12 21:16:44;;;;;;;9.05;6.20;;;;;;;;;;10391192;28;20515;-61
2022/11/12 21:21:44;;;;;;;13.98;6.90;;;;;;;;;;10379618;28;20528;-62
2022/11/12 21:26:46;;;;;;;14.15;7.20;;;;;;;;;;10390924;28;20030;-63
2022/11/12 21:31:47;;;;;;;12.73;6.55;;;;;;;;;;10372982;28;20025;-62
2022/11/12 21:36:47;;;;;;;11.95;6.53;;;;;;;;;;10371590;28;20022;-63
2022/11/12 21:41:47;;;;;;;11.48;6.35;;;;;;;;;;10384782;28;20046;-61
2022/11/12 21:46:47;;;;;;;13.88;6.68;;;;;;;;;;10373731;28;20029;-63
2022/11/12 21:51:48;;;;;;;12.68;6.88;;;;;;;;;;10373261;28;20029;-61
2022/11/12 21:56:48;;;;;;;10.80;6.72;;;;;;;;;;10372437;28;20117;-63
2022/11/12 22:01:48;;;;;;;11.23;6.65;;;;;;;;;;10379563;28;20028;-63
2022/11/12 22:06:48;;;;;;;14.43;6.72;;;;;;;;;;10371740;28;20029;-59
2022/11/12 22:11:49;;;;;;;11.10;6.65;;;;;;;;;;10384330;28;20409;-63
2022/11/12 22:16:49;;;;;;;8.63;6.20;;;;;;;;;;10371897;28;20441;-63
2022/11/12 22:21:49;;;;;;;11.70;6.90;;;;;;;;;;10371405;28;20493;-62
2022/11/12 22:26:50;;;;;;;11.07;6.30;;;;;;;;;;10369529;28;20030;-63
2022/11/12 22:31:50;;;;;;;10.43;6.35;;;;;;;;;;10384474;28;20024;-63
2022/11/12 22:36:50;;;;;;;13.15;7.30;;;;;;;;;;10373584;28;20030;-63
2022/11/12 22:41:50;;;;;;;12.73;6.50;;;;;;;;;;10390831;28;20041;-63
2022/11/12 22:46:51;;;;;;;9.98;6.30;;;;;;;;;;10370230;28;20050;-63
2022/11/12 22:51:51;;;;;;;9.82;6.57;;;;;;;;;;10370820;28;20036;-62
2022/11/12 22:56:51;;;;;;;13.23;6.45;;;;;;;;;;10390249;28;21062;-63
2022/11/12 23:01:51;;;;;;;9.15;6.38;;;;;;;;;;10370884;28;20030;-63
2022/11/12 23:06:52;;;;;;;11.15;6.32;;;;;;;;;;10380851;28;20030;-63
2022/11/12 23:11:52;;;;;;;8.00;5.95;;;;;;;;;;10376875;28;20021;-63
2022/11/12 23:16:52;;;;;;;12.13;6.40;;;;;;;;;;10370099;28;20033;-63
2022/11/12 23:21:53;;;;;;;9.82;6.40;;;;;;;;;;10368745;28;20022;-60
2022/11/12 23:26:53;;;;;;;9.17;6.53;;;;;;;;;;10368359;28;20033;-61
2022/11/12 23:31:53;;;;;;;9.77;5.90;;;;;;;;;;10367081;28;20471;-62
2022/11/12 23:36:53;;;;;;;9.35;6.30;;;;;;;;;;10353372;28;20096;-59
2022/11/12 23:41:54;;;;;;;11.75;6.32;;;;;;;;;;10360285;28;20168;-63
2022/11/12 23:46:54;;;;;;;9.15;5.88;;;;;;;;;;10349898;28;20030;-63
2022/11/12 23:51:54;;;;;;;10.27;6.43;;;;;;;;;;10361839;28;20098;-63
2022/11/12 23:56:54;;;;;;;22.42;6.50;;;;;;;;;;10362844;28;20030;-57
